createdAt,value
2023-01-19T00:01:43.053Z,7.56
2023-01-19T00:04:11.773Z,7.56
2023-01-19T00:06:40.846Z,7.55
2023-01-19T00:09:09.553Z,7.51
2023-01-19T00:11:38.755Z,7.54
2023-01-19T00:14:07.446Z,7.59
2023-01-19T00:16:36.208Z,7.63
2023-01-19T00:19:04.891Z,7.64
2023-01-19T00:21:33.744Z,7.64
2023-01-19T00:24:02.374Z,7.65
2023-01-19T00:26:31.095Z,7.70
2023-01-19T00:28:59.700Z,7.74
2023-01-19T00:31:30.195Z,7.73
2023-01-19T00:33:58.859Z,7.75
2023-01-19T00:36:27.913Z,7.76
2023-01-19T00:38:56.520Z,7.78
2023-01-19T00:41:43.864Z,7.81
2023-01-19T00:44:12.655Z,7.86
2023-01-19T00:46:41.307Z,7.89
2023-01-19T00:49:09.990Z,7.93
2023-01-19T00:51:38.654Z,7.96
2023-01-19T00:54:09.201Z,7.99
2023-01-19T00:56:38.012Z,7.98
2023-01-19T00:59:06.679Z,7.98
2023-01-19T01:01:45.556Z,7.99
2023-01-19T01:04:15.617Z,8.00
2023-01-19T01:06:44.354Z,7.99
2023-01-19T01:09:12.962Z,8.00
2023-01-19T01:11:43.456Z,8.00
2023-01-19T01:14:13.478Z,8.01
2023-01-19T01:16:42.401Z,8.03
2023-01-19T01:19:11.022Z,8.05
2023-01-19T01:21:39.793Z,8.05
2023-01-19T01:24:10.568Z,8.06
2023-01-19T01:26:39.435Z,8.06
2023-01-19T01:29:08.837Z,8.07
2023-01-19T01:31:37.513Z,8.08
2023-01-19T01:34:06.185Z,8.09
2023-01-19T01:36:35.690Z,8.11
2023-01-19T01:39:05.166Z,8.13
2023-01-19T01:41:34.201Z,8.14
2023-01-19T01:44:24.638Z,8.13
2023-01-19T01:46:53.599Z,8.13
2023-01-19T01:49:22.280Z,8.14
2023-01-19T01:51:54.673Z,8.12
2023-01-19T01:54:33.824Z,8.09
2023-01-19T01:57:12.527Z,8.08
2023-01-19T01:59:47.971Z,7.99
2023-01-19T02:02:40.535Z,7.97
2023-01-19T02:05:33.655Z,7.89
2023-01-19T02:08:29.185Z,7.78
2023-01-19T02:11:17.712Z,7.76
2023-01-19T02:13:47.899Z,7.69
2023-01-19T02:16:17.827Z,7.64
2023-01-19T02:18:46.702Z,7.59
2023-01-19T02:21:44.794Z,7.51
2023-01-19T02:24:13.814Z,7.44
2023-01-19T02:26:48.100Z,7.40
2023-01-19T02:29:25.220Z,7.34
2023-01-19T02:31:55.882Z,7.33
2023-01-19T02:34:24.656Z,7.37
2023-01-19T02:37:06.881Z,7.49
2023-01-19T02:39:50.943Z,7.66
2023-01-19T02:42:29.858Z,7.81
2023-01-19T02:45:00.139Z,7.91
2023-01-19T02:47:39.126Z,8.02
2023-01-19T02:50:43.756Z,8.17
2023-01-19T02:53:30.660Z,8.34
2023-01-19T02:56:29.547Z,8.54
2023-01-19T02:59:22.886Z,8.82
2023-01-19T03:02:36.593Z,9.06
2023-01-19T03:05:46.051Z,9.30
2023-01-19T03:08:25.392Z,9.45
2023-01-19T03:11:11.791Z,9.55
2023-01-19T03:14:09.062Z,9.60
2023-01-19T03:16:45.928Z,9.61
2023-01-19T03:19:36.686Z,9.61
2023-01-19T03:22:13.770Z,9.61
2023-01-19T03:24:46.279Z,9.63
2023-01-19T03:27:42.655Z,9.62
2023-01-19T03:30:21.643Z,9.60
2023-01-19T03:33:05.078Z,9.61
2023-01-19T03:35:39.178Z,9.63
2023-01-19T03:38:15.673Z,9.63
2023-01-19T03:40:45.790Z,9.59
2023-01-19T03:43:16.976Z,9.52
2023-01-19T03:45:46.950Z,9.53
2023-01-19T03:48:15.701Z,9.54
2023-01-19T03:50:44.417Z,9.60
2023-01-19T03:53:17.061Z,9.65
2023-01-19T03:55:48.036Z,9.64
2023-01-19T03:58:16.723Z,9.59
2023-01-19T04:00:45.589Z,9.54
2023-01-19T04:03:18.154Z,9.48
2023-01-19T04:05:46.968Z,9.43
2023-01-19T04:08:16.991Z,9.39
2023-01-19T04:10:45.752Z,9.39
2023-01-19T04:13:14.501Z,9.37
2023-01-19T04:15:43.229Z,9.36
2023-01-19T04:18:12.430Z,9.31
2023-01-19T04:20:41.704Z,9.28
2023-01-19T04:23:10.636Z,9.26
2023-01-19T04:25:39.192Z,9.22
2023-01-19T04:28:07.873Z,9.25
2023-01-19T04:34:01.532Z,9.21
2023-01-19T04:36:30.426Z,9.16
2023-01-19T04:38:59.318Z,9.14
2023-01-19T04:41:29.659Z,9.14
2023-01-19T04:43:59.083Z,9.16
2023-01-19T04:46:27.784Z,9.16
2023-01-19T04:49:05.320Z,9.17
2023-01-19T04:51:35.008Z,9.20
2023-01-19T04:54:04.244Z,9.25
2023-01-19T04:56:32.996Z,9.30
2023-01-19T04:59:02.177Z,9.29
2023-01-19T05:01:31.081Z,9.31
2023-01-19T05:04:00.780Z,9.33
2023-01-19T05:06:29.542Z,9.37
2023-01-19T05:08:58.650Z,9.37
2023-01-19T05:11:27.560Z,9.41
2023-01-19T05:13:56.277Z,9.43
2023-01-19T05:16:25.310Z,9.48
2023-01-19T05:18:54.762Z,9.51
2023-01-19T05:21:23.893Z,9.57
2023-01-19T05:23:53.211Z,9.60
2023-01-19T05:26:22.115Z,9.61
2023-01-19T05:28:50.854Z,9.62
2023-01-19T05:31:19.816Z,9.64
2023-01-19T05:33:49.266Z,9.65
2023-01-19T05:36:18.314Z,9.65
2023-01-19T05:38:47.321Z,9.62
2023-01-19T05:41:16.123Z,9.64
2023-01-19T05:43:46.432Z,9.64
2023-01-19T05:46:15.672Z,9.66
2023-01-19T05:48:45.335Z,9.67
2023-01-19T05:51:14.074Z,9.66
2023-01-19T05:53:43.652Z,9.65
2023-01-19T05:56:12.253Z,9.66
2023-01-19T05:58:41.052Z,9.67
2023-01-19T06:01:10.876Z,9.68
2023-01-19T06:03:39.993Z,9.71
2023-01-19T06:06:08.613Z,9.71
2023-01-19T06:08:37.208Z,9.76
2023-01-19T06:11:07.593Z,9.80
2023-01-19T06:13:36.295Z,9.81
2023-01-19T06:16:05.231Z,9.84
2023-01-19T06:18:34.390Z,9.83
2023-01-19T06:21:06.274Z,9.89
2023-01-19T06:23:35.773Z,9.92
2023-01-19T06:26:05.055Z,9.96
2023-01-19T06:28:33.793Z,10.02
2023-01-19T06:31:02.611Z,10.07
2023-01-19T06:33:31.697Z,10.08
2023-01-19T06:36:00.570Z,10.08
2023-01-19T06:38:29.344Z,10.08
2023-01-19T06:40:58.832Z,10.08
2023-01-19T06:43:27.659Z,10.12
2023-01-19T06:45:56.760Z,10.18
2023-01-19T06:48:26.133Z,10.18
2023-01-19T06:50:59.517Z,10.24
2023-01-19T06:53:30.651Z,10.25
2023-01-19T06:56:02.072Z,10.26
2023-01-19T06:58:31.942Z,10.30
2023-01-19T07:01:06.300Z,10.31
2023-01-19T07:03:38.826Z,10.33
2023-01-19T07:06:07.554Z,10.34
2023-01-19T07:08:37.489Z,10.41
2023-01-19T07:11:26.319Z,10.43
2023-01-19T07:13:58.053Z,10.46
2023-01-19T07:16:26.960Z,10.50
2023-01-19T07:18:56.009Z,10.55
2023-01-19T07:21:24.826Z,10.57
2023-01-19T07:23:53.570Z,10.66
2023-01-19T07:26:25.143Z,10.69
2023-01-19T07:28:54.100Z,10.70
2023-01-19T07:31:24.149Z,10.78
2023-01-19T07:33:53.082Z,10.86
2023-01-19T07:36:21.790Z,10.89
2023-01-19T07:38:50.457Z,10.97
2023-01-19T07:41:19.353Z,11.05
2023-01-19T07:43:47.943Z,11.11
2023-01-19T07:46:16.595Z,11.20
2023-01-19T07:48:45.306Z,11.24
2023-01-19T07:51:18.207Z,11.28
2023-01-19T07:53:47.223Z,11.35
2023-01-19T07:56:15.855Z,11.41
2023-01-19T07:58:44.460Z,11.48
2023-01-19T08:01:14.527Z,11.55
2023-01-19T08:03:43.591Z,11.65
2023-01-19T08:06:26.468Z,11.73
2023-01-19T08:08:55.373Z,11.82
2023-01-19T08:11:49.543Z,11.89
2023-01-19T08:14:18.538Z,11.99
2023-01-19T08:16:47.109Z,12.06
2023-01-19T08:19:15.801Z,12.16
2023-01-19T08:21:46.365Z,12.26
2023-01-19T08:24:21.711Z,12.31
2023-01-19T08:26:50.397Z,12.31
2023-01-19T08:29:19.161Z,12.36
2023-01-19T08:31:47.978Z,12.41
2023-01-19T08:34:16.727Z,12.48
2023-01-19T08:36:45.277Z,12.53
2023-01-19T08:39:14.743Z,12.64
2023-01-19T08:41:43.735Z,12.71
2023-01-19T08:44:12.447Z,12.77
2023-01-19T08:46:41.287Z,12.86
2023-01-19T08:49:10.380Z,12.90
2023-01-19T08:51:39.210Z,12.95
2023-01-19T08:54:08.115Z,13.01
2023-01-19T08:56:37.087Z,13.05
2023-01-19T08:59:11.304Z,13.14
2023-01-19T09:01:41.638Z,13.27
2023-01-19T09:04:10.686Z,13.36
2023-01-19T09:06:39.444Z,13.40
2023-01-19T09:09:08.026Z,13.48
2023-01-19T09:11:36.988Z,13.54
2023-01-19T09:14:06.270Z,13.63
2023-01-19T09:16:34.917Z,13.68
2023-01-19T09:19:03.600Z,13.73
2023-01-19T09:21:32.210Z,13.79
2023-01-19T09:24:00.945Z,13.85
2023-01-19T09:26:31.654Z,13.91
2023-01-19T09:29:01.759Z,13.96
2023-01-19T09:31:30.605Z,14.03
2023-01-19T09:33:59.418Z,14.03
2023-01-19T09:36:28.058Z,14.10
2023-01-19T09:38:56.726Z,14.15
2023-01-19T09:41:26.558Z,14.13
2023-01-19T09:44:00.572Z,14.18
2023-01-19T09:46:41.636Z,14.22
2023-01-19T09:49:28.679Z,14.27
2023-01-19T09:51:58.283Z,14.34
2023-01-19T09:54:41.141Z,14.37
2023-01-19T09:57:14.905Z,14.37
2023-01-19T10:03:21.293Z,14.39
2023-01-19T10:05:58.971Z,14.38
2023-01-19T10:08:52.820Z,14.43
2023-01-19T10:11:52.641Z,14.46
2023-01-19T10:14:42.099Z,14.57
2023-01-19T10:17:27.606Z,14.58
2023-01-19T10:19:58.960Z,14.55
2023-01-19T10:22:29.289Z,14.55
2023-01-19T10:25:06.178Z,14.61
2023-01-19T10:27:37.735Z,14.61
2023-01-19T10:30:10.451Z,14.66
2023-01-19T10:32:41.318Z,14.68
2023-01-19T10:35:26.128Z,14.74
2023-01-19T10:38:01.793Z,14.82
2023-01-19T10:41:05.294Z,14.83
2023-01-19T10:43:44.375Z,14.86
2023-01-19T10:46:22.557Z,14.98
2023-01-19T10:48:54.339Z,15.02
2023-01-19T10:51:23.550Z,15.07
2023-01-19T10:54:02.589Z,15.10
2023-01-19T10:56:36.387Z,15.20
2023-01-19T10:59:07.852Z,15.32
2023-01-19T11:01:37.593Z,15.36
2023-01-19T11:04:29.876Z,15.43
2023-01-19T11:07:34.184Z,15.51
2023-01-19T11:10:19.949Z,15.53
2023-01-19T11:13:24.354Z,15.61
2023-01-19T11:16:16.663Z,15.63
2023-01-19T11:18:47.343Z,15.65
2023-01-19T11:21:17.772Z,15.75
2023-01-19T11:23:56.170Z,15.81
2023-01-19T11:27:03.163Z,15.89
2023-01-19T11:29:32.177Z,15.94
2023-01-19T11:32:19.726Z,16.04
2023-01-19T11:34:49.500Z,16.13
2023-01-19T11:37:21.498Z,16.21
2023-01-19T11:39:55.230Z,16.26
2023-01-19T11:42:26.095Z,16.35
2023-01-19T11:45:07.131Z,16.50
2023-01-19T11:47:52.905Z,16.56
2023-01-19T11:50:39.276Z,16.66
2023-01-19T11:53:20.066Z,16.71
2023-01-19T11:56:15.392Z,16.82
2023-01-19T11:58:48.117Z,16.86
2023-01-19T12:01:25.464Z,16.93
2023-01-19T12:04:27.841Z,16.97
2023-01-19T12:07:00.011Z,16.97
2023-01-19T12:09:42.945Z,17.04
2023-01-19T12:17:07.365Z,17.11
2023-01-19T12:19:54.982Z,17.12
2023-01-19T12:22:24.713Z,17.13
2023-01-19T12:25:54.924Z,17.18
2023-01-19T12:28:33.085Z,17.21
2023-01-19T12:31:02.964Z,17.23
2023-01-19T12:33:39.492Z,17.26
2023-01-19T12:36:17.312Z,17.27
2023-01-19T12:38:54.119Z,17.22
2023-01-19T12:41:37.301Z,17.19
2023-01-19T12:44:11.969Z,17.15
2023-01-19T12:46:52.542Z,17.14
2023-01-19T12:49:39.186Z,17.20
2023-01-19T12:52:35.410Z,17.22
2023-01-19T12:55:20.935Z,17.23
2023-01-19T12:58:10.900Z,17.25
2023-01-19T13:00:42.949Z,17.28
2023-01-19T13:03:17.688Z,17.30
2023-01-19T13:05:54.403Z,17.29
2023-01-19T13:08:30.745Z,17.28
2023-01-19T13:11:02.556Z,17.28
2023-01-19T13:13:36.940Z,17.29
2023-01-19T13:16:25.120Z,17.28
2023-01-19T13:19:16.709Z,17.29
2023-01-19T13:21:49.845Z,17.27
2023-01-19T13:24:22.774Z,17.26
2023-01-19T13:26:54.312Z,17.21
2023-01-19T13:29:43.609Z,17.17
2023-01-19T13:32:21.287Z,17.14
2023-01-19T13:34:59.629Z,17.07
2023-01-19T13:37:42.209Z,17.02
2023-01-19T13:40:41.712Z,16.96
2023-01-19T13:43:32.568Z,16.90
2023-01-19T13:46:01.714Z,16.85
2023-01-19T13:48:32.572Z,16.80
2023-01-19T13:51:06.132Z,16.75
2023-01-19T13:53:35.598Z,16.72
2023-01-19T13:56:16.276Z,16.68
2023-01-19T13:58:58.166Z,16.68
2023-01-19T14:01:29.378Z,16.65
2023-01-19T14:04:00.076Z,16.61
2023-01-19T14:06:40.852Z,16.58
2023-01-19T14:09:20.502Z,16.53
2023-01-19T14:12:17.746Z,16.47
2023-01-19T14:14:48.428Z,16.41
2023-01-19T14:17:29.674Z,16.33
2023-01-19T14:20:05.071Z,16.23
2023-01-19T14:22:45.516Z,16.11
2023-01-19T14:25:34.880Z,16.00
2023-01-19T14:28:35.773Z,15.87
2023-01-19T14:31:26.593Z,15.74
2023-01-19T14:33:58.596Z,15.61
2023-01-19T14:36:36.326Z,15.52
2023-01-19T14:39:06.265Z,15.40
2023-01-19T14:41:52.437Z,15.29
2023-01-19T14:44:36.657Z,15.18
2023-01-19T14:47:07.708Z,15.05
2023-01-19T14:49:38.411Z,14.96
2023-01-19T14:52:22.098Z,14.87
2023-01-19T14:54:51.556Z,14.78
2023-01-19T14:57:20.348Z,14.69
2023-01-19T14:59:50.514Z,14.60
2023-01-19T15:02:19.517Z,14.51
2023-01-19T15:04:49.300Z,14.40
2023-01-19T15:07:24.286Z,14.30
2023-01-19T15:09:53.085Z,14.21
2023-01-19T15:12:25.448Z,14.11
2023-01-19T15:14:54.090Z,14.03
2023-01-19T15:17:25.792Z,13.95
2023-01-19T15:19:56.640Z,13.90
2023-01-19T15:22:28.648Z,13.87
2023-01-19T15:25:00.199Z,13.82
2023-01-19T15:27:29.517Z,13.78
2023-01-19T15:29:59.925Z,13.74
2023-01-19T15:32:28.683Z,13.70
2023-01-19T15:34:57.371Z,13.64
2023-01-19T15:37:26.011Z,13.58
2023-01-19T15:39:54.631Z,13.53
2023-01-19T15:42:23.161Z,13.47
2023-01-19T15:44:53.340Z,13.44
2023-01-19T15:47:22.205Z,13.41
2023-01-19T15:49:51.348Z,13.41
2023-01-19T15:52:20.162Z,13.43
2023-01-19T15:54:48.843Z,13.46
2023-01-19T15:57:17.623Z,13.49
2023-01-19T15:59:46.243Z,13.50
2023-01-19T16:02:15.074Z,13.53
2023-01-19T16:04:48.363Z,13.56
2023-01-19T16:07:17.052Z,13.56
2023-01-19T16:09:45.884Z,13.55
2023-01-19T16:12:14.467Z,13.52
2023-01-19T16:14:43.180Z,13.51
2023-01-19T16:17:12.344Z,13.46
2023-01-19T16:19:41.178Z,13.39
2023-01-19T16:22:12.277Z,13.36
2023-01-19T16:24:41.055Z,13.31
2023-01-19T16:27:09.794Z,13.28
2023-01-19T16:29:38.604Z,13.24
2023-01-19T16:32:07.406Z,13.20
2023-01-19T16:34:36.169Z,13.17
2023-01-19T16:37:04.920Z,13.17
2023-01-19T16:39:33.953Z,13.12
2023-01-19T16:42:02.763Z,13.09
2023-01-19T16:44:31.443Z,13.07
2023-01-19T16:47:00.230Z,13.06
2023-01-19T16:49:29.125Z,13.03
2023-01-19T16:51:58.790Z,13.01
2023-01-19T16:54:29.459Z,12.99
2023-01-19T16:56:59.053Z,12.96
2023-01-19T16:59:29.396Z,12.93
2023-01-19T17:01:58.339Z,12.89
2023-01-19T17:04:27.542Z,12.85
2023-01-19T17:06:56.243Z,12.81
2023-01-19T17:09:24.959Z,12.77
2023-01-19T17:11:53.756Z,12.73
2023-01-19T17:14:22.321Z,12.69
2023-01-19T17:16:51.186Z,12.65
2023-01-19T17:19:22.263Z,12.65
2023-01-19T17:21:51.149Z,12.63
2023-01-19T17:24:19.946Z,12.62
2023-01-19T17:26:49.084Z,12.61
2023-01-19T17:29:18.437Z,12.59
2023-01-19T17:31:49.858Z,12.57
2023-01-19T17:34:18.791Z,12.56
2023-01-19T17:36:47.452Z,12.55
2023-01-19T17:39:17.060Z,12.53
2023-01-19T17:41:45.867Z,12.52
2023-01-19T17:44:14.388Z,12.50
2023-01-19T17:46:42.909Z,12.50
2023-01-19T17:49:11.818Z,12.49
2023-01-19T17:51:40.729Z,12.47
2023-01-19T17:54:11.012Z,12.46
2023-01-19T17:56:41.503Z,12.47
2023-01-19T17:59:10.295Z,12.47
2023-01-19T18:01:40.539Z,12.46
2023-01-19T18:04:09.729Z,12.48
2023-01-19T18:06:38.553Z,12.47
2023-01-19T18:09:08.061Z,12.44
2023-01-19T18:11:36.730Z,12.43
2023-01-19T18:14:07.265Z,12.41
2023-01-19T18:16:36.119Z,12.40
2023-01-19T18:19:04.759Z,12.36
2023-01-19T18:21:33.356Z,12.34
2023-01-19T18:24:05.203Z,12.32
2023-01-19T18:26:36.555Z,12.30
2023-01-19T18:29:05.554Z,12.30
2023-01-19T18:31:34.464Z,12.35
2023-01-19T18:34:03.787Z,12.39
2023-01-19T18:36:32.822Z,12.43
2023-01-19T18:39:01.943Z,12.46
2023-01-19T18:41:30.891Z,12.44
2023-01-19T18:44:00.030Z,12.40
2023-01-19T18:46:28.857Z,12.38
2023-01-19T18:48:57.606Z,12.34
2023-01-19T18:51:26.527Z,12.30
2023-01-19T18:53:57.628Z,12.25
2023-01-19T18:56:27.025Z,12.22
2023-01-19T18:58:55.838Z,12.18
2023-01-19T19:01:33.185Z,12.14
2023-01-19T19:04:03.350Z,12.09
2023-01-19T19:06:31.887Z,12.07
2023-01-19T19:09:00.357Z,12.08
2023-01-19T19:11:29.037Z,12.10
2023-01-19T19:14:01.526Z,12.11
2023-01-19T19:16:31.675Z,12.08
2023-01-19T19:19:02.126Z,12.04
2023-01-19T19:21:30.859Z,12.01
2023-01-19T19:23:59.512Z,11.99
2023-01-19T19:26:29.074Z,11.96
2023-01-19T19:28:57.888Z,11.96
2023-01-19T19:31:32.450Z,11.98
2023-01-19T19:34:01.492Z,11.92
2023-01-19T19:36:30.258Z,11.88
2023-01-19T19:39:00.185Z,11.86
2023-01-19T19:41:32.449Z,11.86
2023-01-19T19:44:01.464Z,11.88
2023-01-19T19:46:32.592Z,11.88
2023-01-19T19:49:02.114Z,11.89
2023-01-19T19:51:31.729Z,11.90
2023-01-19T19:54:02.345Z,11.92
2023-01-19T19:56:34.510Z,11.93
2023-01-19T19:59:03.758Z,11.95
2023-01-19T20:01:33.991Z,11.96
2023-01-19T20:04:12.386Z,11.96
2023-01-19T20:06:51.105Z,11.95
2023-01-19T20:09:24.786Z,11.93
2023-01-19T20:11:53.748Z,11.90
2023-01-19T20:14:24.173Z,11.85
2023-01-19T20:16:54.572Z,11.79
2023-01-19T20:19:23.292Z,11.77
2023-01-19T20:21:52.376Z,11.76
2023-01-19T20:24:21.290Z,11.79
2023-01-19T20:26:53.327Z,11.89
2023-01-19T20:29:22.496Z,12.00
2023-01-19T20:31:58.355Z,12.15
2023-01-19T20:34:33.731Z,12.30
2023-01-19T20:37:04.977Z,12.35
2023-01-19T20:39:35.619Z,12.43
2023-01-19T20:42:05.821Z,12.47
2023-01-19T20:44:34.550Z,12.51
2023-01-19T20:47:06.537Z,12.55
2023-01-19T20:49:37.801Z,12.57
2023-01-19T20:52:06.591Z,12.58
2023-01-19T20:54:35.289Z,12.59
2023-01-19T20:57:04.014Z,12.56
2023-01-19T20:59:34.339Z,12.52
2023-01-19T21:02:03.434Z,12.48
2023-01-19T21:04:32.171Z,12.44
2023-01-19T21:07:00.731Z,12.40
2023-01-19T21:09:29.406Z,12.34
2023-01-19T21:11:58.340Z,12.30
2023-01-19T21:14:27.418Z,12.25
2023-01-19T21:16:58.581Z,12.22
2023-01-19T21:19:27.461Z,12.17
2023-01-19T21:21:56.063Z,12.12
2023-01-19T21:24:24.845Z,12.07
2023-01-19T21:26:53.513Z,12.06
2023-01-19T21:29:22.965Z,12.03
2023-01-19T21:31:57.887Z,12.00
2023-01-19T21:34:26.633Z,11.99
2023-01-19T21:36:55.223Z,11.96
2023-01-19T21:39:24.199Z,11.92
2023-01-19T21:41:52.933Z,11.87
2023-01-19T21:44:22.608Z,11.81
2023-01-19T21:46:55.699Z,11.75
2023-01-19T21:49:24.297Z,11.70
2023-01-19T21:53:42.143Z,11.63
2023-01-19T21:56:16.912Z,11.55
2023-01-19T21:58:49.691Z,11.48
2023-01-19T22:01:18.505Z,11.40
2023-01-19T22:03:47.244Z,11.32
2023-01-19T22:06:15.867Z,11.25
2023-01-19T22:08:46.721Z,11.18
2023-01-19T22:11:18.617Z,11.12
2023-01-19T22:13:47.860Z,11.09
2023-01-19T22:16:19.466Z,11.07
2023-01-19T22:18:59.627Z,11.01
2023-01-19T22:21:35.890Z,10.98
2023-01-19T22:24:05.326Z,10.93
2023-01-19T22:26:35.212Z,10.86
2023-01-19T22:29:06.570Z,10.79
2023-01-19T22:31:35.390Z,10.73
2023-01-19T22:34:04.809Z,10.66
2023-01-19T22:36:34.185Z,10.62
2023-01-19T22:39:10.098Z,10.60
2023-01-19T22:41:43.587Z,10.58
2023-01-19T22:44:17.100Z,10.52
2023-01-19T22:46:45.734Z,10.46
2023-01-19T22:49:17.971Z,10.39
2023-01-19T22:51:47.124Z,10.28
2023-01-19T22:54:15.891Z,10.18
2023-01-19T22:56:45.936Z,10.09
2023-01-19T22:59:14.806Z,10.02
2023-01-19T23:01:44.611Z,9.95
2023-01-19T23:04:16.067Z,9.89
2023-01-19T23:06:50.380Z,9.83
2023-01-19T23:09:19.676Z,9.77
2023-01-19T23:11:50.820Z,9.72
2023-01-19T23:14:22.614Z,9.69
2023-01-19T23:16:51.466Z,9.64
2023-01-19T23:19:20.001Z,9.59
2023-01-19T23:21:52.880Z,9.54
2023-01-19T23:24:21.653Z,9.43
2023-01-19T23:26:51.117Z,9.36
2023-01-19T23:29:19.977Z,9.33
2023-01-19T23:31:50.358Z,9.29
2023-01-19T23:34:18.864Z,9.26
2023-01-19T23:36:47.436Z,9.25
2023-01-19T23:39:23.009Z,9.22
2023-01-19T23:41:51.590Z,9.20
2023-01-19T23:44:20.491Z,9.15
2023-01-19T23:46:49.103Z,9.10
2023-01-19T23:49:18.314Z,9.08
2023-01-19T23:51:46.907Z,9.05
2023-01-19T23:54:15.457Z,9.01
2023-01-19T23:56:44.083Z,8.97
2023-01-19T23:59:16.654Z,8.89
